sensor_id;sensor_type;location;lat;lon;timestamp;P1;durP1;ratioP1;P2;durP2;ratioP2
29538;SDS011;16482;51.046;4.498;2022-07-23T00:00:11;11.00;;;10.00;;
29538;SDS011;16482;51.046;4.498;2022-07-23T00:02:45;11.02;;;10.00;;
29538;SDS011;16482;51.046;4.498;2022-07-23T00:05:16;12.40;;;11.10;;
29538;SDS011;16482;51.046;4.498;2022-07-23T00:07:45;11.70;;;10.68;;
29538;SDS011;16482;51.046;4.498;2022-07-23T00:10:18;11.32;;;10.23;;
29538;SDS011;16482;51.046;4.498;2022-07-23T00:12:44;11.10;;;10.10;;
29538;SDS011;16482;51.046;4.498;2022-07-23T00:15:18;11.60;;;10.50;;
29538;SDS011;16482;51.046;4.498;2022-07-23T00:17:44;11.10;;;10.10;;
29538;SDS011;16482;51.046;4.498;2022-07-23T00:20:12;12.00;;;10.80;;
29538;SDS011;16482;51.046;4.498;2022-07-23T00:22:47;11.18;;;10.07;;
29538;SDS011;16482;51.046;4.498;2022-07-23T00:25:14;11.13;;;9.95;;
29538;SDS011;16482;51.046;4.498;2022-07-23T00:27:43;11.80;;;10.70;;
29538;SDS011;16482;51.046;4.498;2022-07-23T00:30:14;11.38;;;10.27;;
29538;SDS011;16482;51.046;4.498;2022-07-23T00:32:47;12.05;;;10.85;;
29538;SDS011;16482;51.046;4.498;2022-07-23T00:35:14;11.13;;;10.13;;
29538;SDS011;16482;51.046;4.498;2022-07-23T00:37:43;11.40;;;10.30;;
29538;SDS011;16482;51.046;4.498;2022-07-23T00:40:12;10.70;;;9.70;;
29538;SDS011;16482;51.046;4.498;2022-07-23T00:42:46;10.55;;;9.45;;
29538;SDS011;16482;51.046;4.498;2022-07-23T00:45:12;11.27;;;10.18;;
29538;SDS011;16482;51.046;4.498;2022-07-23T00:47:38;10.60;;;9.60;;
29538;SDS011;16482;51.046;4.498;2022-07-23T00:50:05;11.27;;;10.25;;
29538;SDS011;16482;51.046;4.498;2022-07-23T00:52:35;10.57;;;9.57;;
29538;SDS011;16482;51.046;4.498;2022-07-23T00:55:12;11.38;;;10.27;;
29538;SDS011;16482;51.046;4.498;2022-07-23T00:57:38;10.77;;;9.77;;
29538;SDS011;16482;51.046;4.498;2022-07-23T01:00:15;11.13;;;10.02;;
29538;SDS011;16482;51.046;4.498;2022-07-23T01:02:44;10.55;;;9.57;;
29538;SDS011;16482;51.046;4.498;2022-07-23T01:05:19;10.10;;;9.15;;
29538;SDS011;16482;51.046;4.498;2022-07-23T01:07:48;10.85;;;9.82;;
29538;SDS011;16482;51.046;4.498;2022-07-23T01:10:14;10.35;;;9.38;;
29538;SDS011;16482;51.046;4.498;2022-07-23T01:12:55;10.07;;;9.18;;
29538;SDS011;16482;51.046;4.498;2022-07-23T01:15:25;10.27;;;9.35;;
29538;SDS011;16482;51.046;4.498;2022-07-23T01:17:51;11.23;;;10.13;;
29538;SDS011;16482;51.046;4.498;2022-07-23T01:20:17;11.38;;;10.27;;
29538;SDS011;16482;51.046;4.498;2022-07-23T01:22:43;10.07;;;9.10;;
29538;SDS011;16482;51.046;4.498;2022-07-23T01:25:10;10.70;;;9.70;;
29538;SDS011;16482;51.046;4.498;2022-07-23T01:27:39;10.05;;;9.15;;
29538;SDS011;16482;51.046;4.498;2022-07-23T01:30:05;10.43;;;9.43;;
29538;SDS011;16482;51.046;4.498;2022-07-23T01:32:32;10.80;;;9.80;;
29538;SDS011;16482;51.046;4.498;2022-07-23T01:35:00;10.07;;;9.13;;
29538;SDS011;16482;51.046;4.498;2022-07-23T01:37:25;10.07;;;9.13;;
29538;SDS011;16482;51.046;4.498;2022-07-23T01:39:52;10.40;;;9.40;;
29538;SDS011;16482;51.046;4.498;2022-07-23T01:42:17;10.50;;;9.50;;
29538;SDS011;16482;51.046;4.498;2022-07-23T01:44:43;9.63;;;8.73;;
29538;SDS011;16482;51.046;4.498;2022-07-23T01:47:09;10.07;;;9.18;;
29538;SDS011;16482;51.046;4.498;2022-07-23T01:49:35;9.95;;;9.05;;
29538;SDS011;16482;51.046;4.498;2022-07-23T01:52:02;9.93;;;9.02;;
29538;SDS011;16482;51.046;4.498;2022-07-23T01:54:30;9.68;;;8.77;;
29538;SDS011;16482;51.046;4.498;2022-07-23T01:56:58;9.73;;;8.82;;
29538;SDS011;16482;51.046;4.498;2022-07-23T01:59:24;9.93;;;9.02;;
29538;SDS011;16482;51.046;4.498;2022-07-23T02:01:54;9.05;;;8.15;;
29538;SDS011;16482;51.046;4.498;2022-07-23T02:04:28;9.15;;;8.25;;
29538;SDS011;16482;51.046;4.498;2022-07-23T02:06:54;9.00;;;8.20;;
29538;SDS011;16482;51.046;4.498;2022-07-23T02:09:23;10.00;;;9.00;;
29538;SDS011;16482;51.046;4.498;2022-07-23T02:11:57;9.70;;;8.80;;
29538;SDS011;16482;51.046;4.498;2022-07-23T02:14:25;9.30;;;8.50;;
29538;SDS011;16482;51.046;4.498;2022-07-23T02:16:54;9.07;;;8.20;;
29538;SDS011;16482;51.046;4.498;2022-07-23T02:19:23;9.30;;;8.40;;
29538;SDS011;16482;51.046;4.498;2022-07-23T02:21:51;8.85;;;8.05;;
29538;SDS011;16482;51.046;4.498;2022-07-23T02:24:20;10.25;;;9.18;;
29538;SDS011;16482;51.046;4.498;2022-07-23T02:26:46;9.10;;;8.30;;
29538;SDS011;16482;51.046;4.498;2022-07-23T02:29:15;9.25;;;8.43;;
29538;SDS011;16482;51.046;4.498;2022-07-23T02:31:41;9.35;;;8.45;;
29538;SDS011;16482;51.046;4.498;2022-07-23T02:34:07;9.02;;;8.23;;
29538;SDS011;16482;51.046;4.498;2022-07-23T02:36:42;9.05;;;8.18;;
29538;SDS011;16482;51.046;4.498;2022-07-23T02:39:10;10.23;;;9.13;;
29538;SDS011;16482;51.046;4.498;2022-07-23T02:41:39;9.88;;;8.98;;
29538;SDS011;16482;51.046;4.498;2022-07-23T02:44:05;9.70;;;8.80;;
29538;SDS011;16482;51.046;4.498;2022-07-23T02:46:31;9.25;;;8.35;;
29538;SDS011;16482;51.046;4.498;2022-07-23T02:49:00;8.85;;;7.97;;
29538;SDS011;16482;51.046;4.498;2022-07-23T02:51:25;10.00;;;9.02;;
29538;SDS011;16482;51.046;4.498;2022-07-23T02:53:54;9.27;;;8.38;;
29538;SDS011;16482;51.046;4.498;2022-07-23T02:56:20;9.07;;;8.27;;
29538;SDS011;16482;51.046;4.498;2022-07-23T02:58:46;9.30;;;8.40;;
29538;SDS011;16482;51.046;4.498;2022-07-23T03:01:11;9.40;;;8.48;;
29538;SDS011;16482;51.046;4.498;2022-07-23T03:03:37;9.00;;;8.15;;
29538;SDS011;16482;51.046;4.498;2022-07-23T03:06:03;8.13;;;7.40;;
29538;SDS011;16482;51.046;4.498;2022-07-23T03:08:34;8.95;;;8.15;;
29538;SDS011;16482;51.046;4.498;2022-07-23T03:11:02;8.70;;;7.90;;
29538;SDS011;16482;51.046;4.498;2022-07-23T03:13:34;8.75;;;7.95;;
29538;SDS011;16482;51.046;4.498;2022-07-23T03:16:01;8.85;;;8.05;;
29538;SDS011;16482;51.046;4.498;2022-07-23T03:18:26;9.13;;;8.25;;
29538;SDS011;16482;51.046;4.498;2022-07-23T03:21:07;8.98;;;8.18;;
29538;SDS011;16482;51.046;4.498;2022-07-23T03:23:36;9.15;;;8.25;;
29538;SDS011;16482;51.046;4.498;2022-07-23T03:26:09;9.25;;;8.35;;
29538;SDS011;16482;51.046;4.498;2022-07-23T03:28:35;8.63;;;7.82;;
29538;SDS011;16482;51.046;4.498;2022-07-23T03:31:01;8.98;;;8.07;;
29538;SDS011;16482;51.046;4.498;2022-07-23T03:33:27;8.82;;;7.95;;
29538;SDS011;16482;51.046;4.498;2022-07-23T03:35:55;8.65;;;7.85;;
29538;SDS011;16482;51.046;4.498;2022-07-23T03:38:21;9.15;;;8.35;;
29538;SDS011;16482;51.046;4.498;2022-07-23T03:40:47;8.73;;;7.93;;
29538;SDS011;16482;51.046;4.498;2022-07-23T03:43:13;8.60;;;7.80;;
29538;SDS011;16482;51.046;4.498;2022-07-23T03:45:38;9.07;;;8.18;;
29538;SDS011;16482;51.046;4.498;2022-07-23T03:48:04;9.95;;;7.85;;
29538;SDS011;16482;51.046;4.498;2022-07-23T03:50:33;8.00;;;7.30;;
29538;SDS011;16482;51.046;4.498;2022-07-23T03:52:59;8.93;;;8.13;;
29538;SDS011;16482;51.046;4.498;2022-07-23T03:55:25;9.18;;;8.32;;
29538;SDS011;16482;51.046;4.498;2022-07-23T03:58:00;8.55;;;7.80;;
29538;SDS011;16482;51.046;4.498;2022-07-23T04:00:26;8.57;;;7.78;;
29538;SDS011;16482;51.046;4.498;2022-07-23T04:02:52;8.27;;;7.57;;
29538;SDS011;16482;51.046;4.498;2022-07-23T04:05:21;8.82;;;8.02;;
29538;SDS011;16482;51.046;4.498;2022-07-23T04:07:47;7.82;;;7.13;;
29538;SDS011;16482;51.046;4.498;2022-07-23T04:10:13;9.13;;;8.23;;
29538;SDS011;16482;51.046;4.498;2022-07-23T04:12:41;8.50;;;7.70;;
29538;SDS011;16482;51.046;4.498;2022-07-23T04:15:15;8.75;;;7.95;;
29538;SDS011;16482;51.046;4.498;2022-07-23T04:17:44;8.55;;;7.75;;
29538;SDS011;16482;51.046;4.498;2022-07-23T04:20:15;7.95;;;7.25;;
29538;SDS011;16482;51.046;4.498;2022-07-23T04:22:48;7.97;;;7.28;;
29538;SDS011;16482;51.046;4.498;2022-07-23T04:25:23;7.95;;;7.25;;
29538;SDS011;16482;51.046;4.498;2022-07-23T04:27:49;8.65;;;7.85;;
29538;SDS011;16482;51.046;4.498;2022-07-23T04:30:15;8.40;;;7.60;;
29538;SDS011;16482;51.046;4.498;2022-07-23T04:32:41;8.73;;;7.93;;
29538;SDS011;16482;51.046;4.498;2022-07-23T04:35:14;8.25;;;7.03;;
29538;SDS011;16482;51.046;4.498;2022-07-23T04:37:43;8.25;;;7.45;;
29538;SDS011;16482;51.046;4.498;2022-07-23T04:40:09;8.55;;;7.75;;
29538;SDS011;16482;51.046;4.498;2022-07-23T04:42:35;8.35;;;7.55;;
29538;SDS011;16482;51.046;4.498;2022-07-23T04:45:01;7.85;;;7.15;;
29538;SDS011;16482;51.046;4.498;2022-07-23T04:47:28;8.15;;;7.45;;
29538;SDS011;16482;51.046;4.498;2022-07-23T04:49:55;8.40;;;7.60;;
29538;SDS011;16482;51.046;4.498;2022-07-23T04:52:22;8.10;;;7.32;;
29538;SDS011;16482;51.046;4.498;2022-07-23T04:54:50;8.25;;;7.45;;
29538;SDS011;16482;51.046;4.498;2022-07-23T04:57:16;8.32;;;7.53;;
29538;SDS011;16482;51.046;4.498;2022-07-23T04:59:41;8.50;;;7.70;;
29538;SDS011;16482;51.046;4.498;2022-07-23T05:02:07;8.25;;;7.45;;
29538;SDS011;16482;51.046;4.498;2022-07-23T05:04:33;8.48;;;7.68;;
29538;SDS011;16482;51.046;4.498;2022-07-23T05:06:59;8.77;;;7.97;;
29538;SDS011;16482;51.046;4.498;2022-07-23T05:09:25;7.90;;;7.20;;
29538;SDS011;16482;51.046;4.498;2022-07-23T05:11:54;8.35;;;7.55;;
29538;SDS011;16482;51.046;4.498;2022-07-23T05:14:23;8.07;;;7.28;;
29538;SDS011;16482;51.046;4.498;2022-07-23T05:16:54;8.18;;;7.38;;
29538;SDS011;16482;51.046;4.498;2022-07-23T05:19:25;7.95;;;7.25;;
29538;SDS011;16482;51.046;4.498;2022-07-23T05:21:54;7.75;;;7.05;;
29538;SDS011;16482;51.046;4.498;2022-07-23T05:24:23;8.15;;;7.35;;
29538;SDS011;16482;51.046;4.498;2022-07-23T05:26:54;8.40;;;7.60;;
29538;SDS011;16482;51.046;4.498;2022-07-23T05:29:20;8.00;;;7.28;;
29538;SDS011;16482;51.046;4.498;2022-07-23T05:31:57;8.10;;;7.30;;
29538;SDS011;16482;51.046;4.498;2022-07-23T05:34:25;7.95;;;7.18;;
29538;SDS011;16482;51.046;4.498;2022-07-23T05:36:54;8.00;;;7.20;;
29538;SDS011;16482;51.046;4.498;2022-07-23T05:39:28;8.40;;;7.60;;
29538;SDS011;16482;51.046;4.498;2022-07-23T05:41:54;8.38;;;7.57;;
29538;SDS011;16482;51.046;4.498;2022-07-23T05:44:20;7.53;;;6.82;;
29538;SDS011;16482;51.046;4.498;2022-07-23T05:46:47;7.50;;;6.80;;
29538;SDS011;16482;51.046;4.498;2022-07-23T05:49:15;8.27;;;7.47;;
29538;SDS011;16482;51.046;4.498;2022-07-23T05:51:41;7.85;;;7.05;;
29538;SDS011;16482;51.046;4.498;2022-07-23T05:54:10;8.23;;;7.43;;
29538;SDS011;16482;51.046;4.498;2022-07-23T05:56:36;8.20;;;7.40;;
29538;SDS011;16482;51.046;4.498;2022-07-23T05:59:02;7.78;;;7.07;;
29538;SDS011;16482;51.046;4.498;2022-07-23T06:01:28;8.32;;;7.53;;
29538;SDS011;16482;51.046;4.498;2022-07-23T06:03:54;7.78;;;7.07;;
29538;SDS011;16482;51.046;4.498;2022-07-23T06:06:20;7.80;;;7.10;;
29538;SDS011;16482;51.046;4.498;2022-07-23T06:08:49;8.02;;;7.20;;
29538;SDS011;16482;51.046;4.498;2022-07-23T06:11:15;7.88;;;7.18;;
29538;SDS011;16482;51.046;4.498;2022-07-23T06:13:40;7.68;;;6.88;;
29538;SDS011;16482;51.046;4.498;2022-07-23T06:16:06;7.72;;;7.03;;
29538;SDS011;16482;51.046;4.498;2022-07-23T06:18:32;8.05;;;7.25;;
29538;SDS011;16482;51.046;4.498;2022-07-23T06:21:06;7.72;;;7.03;;
29538;SDS011;16482;51.046;4.498;2022-07-23T06:23:40;7.53;;;6.82;;
29538;SDS011;16482;51.046;4.498;2022-07-23T06:26:06;7.30;;;6.60;;
29538;SDS011;16482;51.046;4.498;2022-07-23T06:28:34;7.75;;;6.95;;
29538;SDS011;16482;51.046;4.498;2022-07-23T06:31:06;7.05;;;6.40;;
29538;SDS011;16482;51.046;4.498;2022-07-23T06:33:34;8.05;;;7.25;;
29538;SDS011;16482;51.046;4.498;2022-07-23T06:36:08;8.27;;;7.32;;
29538;SDS011;16482;51.046;4.498;2022-07-23T06:38:34;7.88;;;7.18;;
29538;SDS011;16482;51.046;4.498;2022-07-23T06:41:09;7.18;;;6.55;;
29538;SDS011;16482;51.046;4.498;2022-07-23T06:43:37;7.47;;;6.78;;
29538;SDS011;16482;51.046;4.498;2022-07-23T06:46:05;7.68;;;6.97;;
29538;SDS011;16482;51.046;4.498;2022-07-23T06:48:40;7.78;;;7.00;;
29538;SDS011;16482;51.046;4.498;2022-07-23T06:51:06;8.68;;;7.78;;
29538;SDS011;16482;51.046;4.498;2022-07-23T06:53:34;8.50;;;7.70;;
29538;SDS011;16482;51.046;4.498;2022-07-23T06:56:10;8.98;;;7.35;;
29538;SDS011;16482;51.046;4.498;2022-07-23T06:58:36;8.38;;;7.47;;
29538;SDS011;16482;51.046;4.498;2022-07-23T07:01:04;7.72;;;7.00;;
29538;SDS011;16482;51.046;4.498;2022-07-23T07:03:39;8.82;;;8.02;;
29538;SDS011;16482;51.046;4.498;2022-07-23T07:06:05;8.13;;;7.40;;
29538;SDS011;16482;51.046;4.498;2022-07-23T07:08:34;9.25;;;8.35;;
29538;SDS011;16482;51.046;4.498;2022-07-23T07:11:05;7.70;;;7.00;;
29538;SDS011;16482;51.046;4.498;2022-07-23T07:13:34;8.15;;;7.35;;
29538;SDS011;16482;51.046;4.498;2022-07-23T07:16:09;8.93;;;8.07;;
29538;SDS011;16482;51.046;4.498;2022-07-23T07:18:35;7.85;;;7.05;;
29538;SDS011;16482;51.046;4.498;2022-07-23T07:21:10;8.10;;;7.30;;
29538;SDS011;16482;51.046;4.498;2022-07-23T07:23:36;8.07;;;7.28;;
29538;SDS011;16482;51.046;4.498;2022-07-23T07:26:11;8.45;;;7.65;;
29538;SDS011;16482;51.046;4.498;2022-07-23T07:28:37;7.38;;;6.68;;
29538;SDS011;16482;51.046;4.498;2022-07-23T07:31:05;8.63;;;7.82;;
29538;SDS011;16482;51.046;4.498;2022-07-23T07:33:34;8.38;;;7.57;;
29538;SDS011;16482;51.046;4.498;2022-07-23T07:36:03;8.00;;;7.30;;
29538;SDS011;16482;51.046;4.498;2022-07-23T07:38:37;9.05;;;8.15;;
29538;SDS011;16482;51.046;4.498;2022-07-23T07:41:10;8.32;;;7.53;;
29538;SDS011;16482;51.046;4.498;2022-07-23T07:43:37;8.07;;;7.38;;
29538;SDS011;16482;51.046;4.498;2022-07-23T07:46:03;8.95;;;8.05;;
29538;SDS011;16482;51.046;4.498;2022-07-23T07:48:32;8.35;;;7.55;;
29538;SDS011;16482;51.046;4.498;2022-07-23T07:50:57;7.78;;;7.07;;
29538;SDS011;16482;51.046;4.498;2022-07-23T07:53:23;8.50;;;7.72;;
29538;SDS011;16482;51.046;4.498;2022-07-23T07:55:49;8.30;;;7.50;;
29538;SDS011;16482;51.046;4.498;2022-07-23T07:58:15;8.50;;;7.70;;
29538;SDS011;16482;51.046;4.498;2022-07-23T08:00:41;8.52;;;7.72;;
29538;SDS011;16482;51.046;4.498;2022-07-23T08:03:07;8.85;;;7.95;;
29538;SDS011;16482;51.046;4.498;2022-07-23T08:05:33;8.32;;;7.57;;
29538;SDS011;16482;51.046;4.498;2022-07-23T08:07:59;8.32;;;7.53;;
29538;SDS011;16482;51.046;4.498;2022-07-23T08:10:25;8.63;;;7.72;;
29538;SDS011;16482;51.046;4.498;2022-07-23T08:12:53;8.40;;;7.53;;
29538;SDS011;16482;51.046;4.498;2022-07-23T08:15:22;8.50;;;7.68;;
29538;SDS011;16482;51.046;4.498;2022-07-23T08:17:49;9.10;;;8.20;;
29538;SDS011;16482;51.046;4.498;2022-07-23T08:20:17;8.32;;;7.50;;
29538;SDS011;16482;51.046;4.498;2022-07-23T08:22:49;8.80;;;7.93;;
29538;SDS011;16482;51.046;4.498;2022-07-23T08:25:22;8.18;;;7.47;;
29538;SDS011;16482;51.046;4.498;2022-07-23T08:27:56;8.90;;;8.00;;
29538;SDS011;16482;51.046;4.498;2022-07-23T08:30:25;8.43;;;7.63;;
29538;SDS011;16482;51.046;4.498;2022-07-23T08:32:53;8.32;;;7.57;;
29538;SDS011;16482;51.046;4.498;2022-07-23T08:35:32;8.27;;;7.45;;
29538;SDS011;16482;51.046;4.498;2022-07-23T08:38:02;8.52;;;7.72;;
29538;SDS011;16482;51.046;4.498;2022-07-23T08:40:31;8.75;;;7.85;;
29538;SDS011;16482;51.046;4.498;2022-07-23T08:42:59;8.73;;;7.82;;
29538;SDS011;16482;51.046;4.498;2022-07-23T08:45:29;8.52;;;7.63;;
29538;SDS011;16482;51.046;4.498;2022-07-23T08:47:56;8.98;;;8.02;;
29538;SDS011;16482;51.046;4.498;2022-07-23T08:50:26;8.55;;;7.75;;
29538;SDS011;16482;51.046;4.498;2022-07-23T08:52:54;8.77;;;7.88;;
29538;SDS011;16482;51.046;4.498;2022-07-23T08:55:22;8.30;;;7.50;;
29538;SDS011;16482;51.046;4.498;2022-07-23T08:57:49;9.10;;;8.20;;
29538;SDS011;16482;51.046;4.498;2022-07-23T09:00:21;8.90;;;8.00;;
29538;SDS011;16482;51.046;4.498;2022-07-23T09:02:47;8.63;;;7.45;;
29538;SDS011;16482;51.046;4.498;2022-07-23T09:05:17;9.00;;;7.80;;
29538;SDS011;16482;51.046;4.498;2022-07-23T09:13:40;8.82;;;7.82;;
29538;SDS011;16482;51.046;4.498;2022-07-23T09:16:14;8.27;;;7.45;;
29538;SDS011;16482;51.046;4.498;2022-07-23T09:18:43;8.57;;;7.78;;
29538;SDS011;16482;51.046;4.498;2022-07-23T09:21:18;8.10;;;7.30;;
29538;SDS011;16482;51.046;4.498;2022-07-23T09:24:03;8.05;;;7.35;;
29538;SDS011;16482;51.046;4.498;2022-07-23T09:26:33;8.88;;;7.97;;
29538;SDS011;16482;51.046;4.498;2022-07-23T09:31:47;8.90;;;8.00;;
29538;SDS011;16482;51.046;4.498;2022-07-23T09:36:48;8.02;;;7.22;;
29538;SDS011;16482;51.046;4.498;2022-07-23T09:39:31;8.30;;;7.50;;
29538;SDS011;16482;51.046;4.498;2022-07-23T09:41:58;8.85;;;7.95;;
29538;SDS011;16482;51.046;4.498;2022-07-23T09:44:46;7.97;;;7.18;;
29538;SDS011;16482;51.046;4.498;2022-07-23T09:47:13;8.25;;;7.45;;
29538;SDS011;16482;51.046;4.498;2022-07-23T09:49:40;8.52;;;7.72;;
29538;SDS011;16482;51.046;4.498;2022-07-23T09:52:28;8.57;;;7.65;;
29538;SDS011;16482;51.046;4.498;2022-07-23T09:55:03;8.45;;;7.60;;
29538;SDS011;16482;51.046;4.498;2022-07-23T09:57:31;8.63;;;7.75;;
29538;SDS011;16482;51.046;4.498;2022-07-23T10:00:03;8.30;;;7.43;;
29538;SDS011;16482;51.046;4.498;2022-07-23T10:02:33;8.05;;;7.25;;
29538;SDS011;16482;51.046;4.498;2022-07-23T10:05:00;8.20;;;7.40;;
29538;SDS011;16482;51.046;4.498;2022-07-23T10:07:27;8.30;;;7.53;;
29538;SDS011;16482;51.046;4.498;2022-07-23T10:09:58;8.20;;;7.40;;
29538;SDS011;16482;51.046;4.498;2022-07-23T10:12:27;8.10;;;7.40;;
29538;SDS011;16482;51.046;4.498;2022-07-23T10:15:18;8.40;;;7.60;;
29538;SDS011;16482;51.046;4.498;2022-07-23T10:17:48;7.80;;;6.97;;
29538;SDS011;16482;51.046;4.498;2022-07-23T10:20:16;8.48;;;7.65;;
29538;SDS011;16482;51.046;4.498;2022-07-23T10:23:04;7.95;;;7.15;;
29538;SDS011;16482;51.046;4.498;2022-07-23T10:25:59;9.70;;;7.47;;
29538;SDS011;16482;51.046;4.498;2022-07-23T10:31:45;7.72;;;7.03;;
29538;SDS011;16482;51.046;4.498;2022-07-23T10:37:21;8.35;;;7.45;;
29538;SDS011;16482;51.046;4.498;2022-07-23T10:40:10;8.00;;;7.00;;
29538;SDS011;16482;51.046;4.498;2022-07-23T10:42:46;7.60;;;6.80;;
29538;SDS011;16482;51.046;4.498;2022-07-23T10:45:35;8.48;;;7.55;;
29538;SDS011;16482;51.046;4.498;2022-07-23T10:51:16;8.32;;;7.53;;
29538;SDS011;16482;51.046;4.498;2022-07-23T10:56:17;8.30;;;7.50;;
29538;SDS011;16482;51.046;4.498;2022-07-23T10:59:26;7.70;;;6.90;;
29538;SDS011;16482;51.046;4.498;2022-07-23T11:02:40;7.40;;;6.70;;
29538;SDS011;16482;51.046;4.498;2022-07-23T11:04:50;8.05;;;7.25;;
29538;SDS011;16482;51.046;4.498;2022-07-23T11:07:17;7.50;;;6.70;;
29538;SDS011;16482;51.046;4.498;2022-07-23T11:09:44;7.53;;;6.72;;
29538;SDS011;16482;51.046;4.498;2022-07-23T11:17:26;7.32;;;6.63;;
29538;SDS011;16482;51.046;4.498;2022-07-23T11:25:02;7.13;;;6.43;;
29538;SDS011;16482;51.046;4.498;2022-07-23T11:27:42;7.78;;;6.97;;
29538;SDS011;16482;51.046;4.498;2022-07-23T11:33:15;7.10;;;6.40;;
29538;SDS011;16482;51.046;4.498;2022-07-23T11:35:44;7.38;;;6.68;;
29538;SDS011;16482;51.046;4.498;2022-07-23T11:38:15;5.95;;;5.43;;
29538;SDS011;16482;51.046;4.498;2022-07-23T11:40:49;6.88;;;6.22;;
29538;SDS011;16482;51.046;4.498;2022-07-23T11:43:17;6.97;;;6.38;;
29538;SDS011;16482;51.046;4.498;2022-07-23T11:45:45;6.30;;;5.70;;
29538;SDS011;16482;51.046;4.498;2022-07-23T11:48:18;6.47;;;5.88;;
29538;SDS011;16482;51.046;4.498;2022-07-23T11:50:49;6.95;;;6.18;;
29538;SDS011;16482;51.046;4.498;2022-07-23T11:53:23;7.57;;;6.40;;
29538;SDS011;16482;51.046;4.498;2022-07-23T11:56:15;6.57;;;5.97;;
29538;SDS011;16482;51.046;4.498;2022-07-23T11:58:41;7.47;;;6.05;;
29538;SDS011;16482;51.046;4.498;2022-07-23T12:01:21;6.28;;;5.68;;
29538;SDS011;16482;51.046;4.498;2022-07-23T12:03:52;6.32;;;5.72;;
29538;SDS011;16482;51.046;4.498;2022-07-23T12:06:18;6.40;;;5.80;;
29538;SDS011;16482;51.046;4.498;2022-07-23T12:08:44;6.68;;;5.95;;
29538;SDS011;16482;51.046;4.498;2022-07-23T12:11:11;6.20;;;5.65;;
29538;SDS011;16482;51.046;4.498;2022-07-23T12:13:37;5.75;;;5.20;;
29538;SDS011;16482;51.046;4.498;2022-07-23T12:16:06;6.65;;;5.95;;
29538;SDS011;16482;51.046;4.498;2022-07-23T12:18:36;6.65;;;5.95;;
29538;SDS011;16482;51.046;4.498;2022-07-23T12:21:10;6.57;;;5.97;;
29538;SDS011;16482;51.046;4.498;2022-07-23T12:23:38;6.35;;;5.78;;
29538;SDS011;16482;51.046;4.498;2022-07-23T12:26:05;6.22;;;5.63;;
29538;SDS011;16482;51.046;4.498;2022-07-23T12:28:39;5.80;;;5.22;;
29538;SDS011;16482;51.046;4.498;2022-07-23T12:31:08;5.80;;;5.18;;
29538;SDS011;16482;51.046;4.498;2022-07-23T12:33:35;6.15;;;5.53;;
29538;SDS011;16482;51.046;4.498;2022-07-23T12:36:08;6.22;;;5.63;;
29538;SDS011;16482;51.046;4.498;2022-07-23T12:38:46;5.80;;;5.30;;
29538;SDS011;16482;51.046;4.498;2022-07-23T12:41:13;5.45;;;4.95;;
29538;SDS011;16482;51.046;4.498;2022-07-23T12:43:43;6.10;;;5.53;;
29538;SDS011;16482;51.046;4.498;2022-07-23T12:46:11;5.97;;;5.45;;
29538;SDS011;16482;51.046;4.498;2022-07-23T12:51:23;5.75;;;5.25;;
29538;SDS011;16482;51.046;4.498;2022-07-23T12:53:56;5.72;;;5.22;;
29538;SDS011;16482;51.046;4.498;2022-07-23T12:56:31;5.45;;;4.95;;
29538;SDS011;16482;51.046;4.498;2022-07-23T12:59:05;5.70;;;5.20;;
29538;SDS011;16482;51.046;4.498;2022-07-23T13:01:37;5.63;;;5.13;;
29538;SDS011;16482;51.046;4.498;2022-07-23T13:04:09;5.72;;;5.22;;
29538;SDS011;16482;51.046;4.498;2022-07-23T13:09:37;6.10;;;5.43;;
29538;SDS011;16482;51.046;4.498;2022-07-23T13:12:03;5.75;;;5.25;;
29538;SDS011;16482;51.046;4.498;2022-07-23T13:14:29;5.85;;;5.35;;
29538;SDS011;16482;51.046;4.498;2022-07-23T13:16:55;5.60;;;5.10;;
29538;SDS011;16482;51.046;4.498;2022-07-23T13:19:24;5.78;;;4.93;;
29538;SDS011;16482;51.046;4.498;2022-07-23T13:21:52;6.38;;;5.72;;
29538;SDS011;16482;51.046;4.498;2022-07-23T13:24:20;6.15;;;5.55;;
29538;SDS011;16482;51.046;4.498;2022-07-23T13:26:55;5.90;;;5.38;;
29538;SDS011;16482;51.046;4.498;2022-07-23T13:29:24;5.40;;;4.90;;
29538;SDS011;16482;51.046;4.498;2022-07-23T13:31:49;5.80;;;5.30;;
29538;SDS011;16482;51.046;4.498;2022-07-23T13:34:18;5.65;;;5.05;;
29538;SDS011;16482;51.046;4.498;2022-07-23T13:36:43;6.00;;;5.47;;
29538;SDS011;16482;51.046;4.498;2022-07-23T13:39:09;5.90;;;5.30;;
29538;SDS011;16482;51.046;4.498;2022-07-23T13:41:37;5.85;;;5.32;;
29538;SDS011;16482;51.046;4.498;2022-07-23T13:44:03;5.63;;;4.93;;
29538;SDS011;16482;51.046;4.498;2022-07-23T13:46:29;5.78;;;5.28;;
29538;SDS011;16482;51.046;4.498;2022-07-23T13:48:55;5.75;;;5.25;;
29538;SDS011;16482;51.046;4.498;2022-07-23T13:51:21;5.70;;;5.13;;
29538;SDS011;16482;51.046;4.498;2022-07-23T13:53:50;5.72;;;5.15;;
29538;SDS011;16482;51.046;4.498;2022-07-23T13:56:16;6.10;;;5.50;;
29538;SDS011;16482;51.046;4.498;2022-07-23T13:58:41;6.30;;;5.50;;
29538;SDS011;16482;51.046;4.498;2022-07-23T14:01:10;5.53;;;5.03;;
29538;SDS011;16482;51.046;4.498;2022-07-23T14:03:36;6.07;;;5.47;;
29538;SDS011;16482;51.046;4.498;2022-07-23T14:06:02;5.63;;;5.10;;
29538;SDS011;16482;51.046;4.498;2022-07-23T14:08:33;5.97;;;5.38;;
29538;SDS011;16482;51.046;4.498;2022-07-23T14:10:59;6.22;;;5.63;;
29538;SDS011;16482;51.046;4.498;2022-07-23T14:13:36;5.93;;;5.35;;
29538;SDS011;16482;51.046;4.498;2022-07-23T14:16:05;6.20;;;5.60;;
29538;SDS011;16482;51.046;4.498;2022-07-23T14:18:36;5.80;;;5.20;;
29538;SDS011;16482;51.046;4.498;2022-07-23T14:21:10;6.03;;;5.43;;
29538;SDS011;16482;51.046;4.498;2022-07-23T14:23:36;5.95;;;5.40;;
29538;SDS011;16482;51.046;4.498;2022-07-23T14:26:09;5.65;;;5.15;;
29538;SDS011;16482;51.046;4.498;2022-07-23T14:28:38;7.13;;;6.18;;
29538;SDS011;16482;51.046;4.498;2022-07-23T14:31:06;5.75;;;5.20;;
29538;SDS011;16482;51.046;4.498;2022-07-23T14:33:39;6.18;;;5.57;;
29538;SDS011;16482;51.046;4.498;2022-07-23T14:36:07;6.38;;;5.78;;
29538;SDS011;16482;51.046;4.498;2022-07-23T14:38:41;5.47;;;5.00;;
29538;SDS011;16482;51.046;4.498;2022-07-23T14:41:07;5.97;;;5.38;;
29538;SDS011;16482;51.046;4.498;2022-07-23T14:43:37;6.13;;;5.53;;
29538;SDS011;16482;51.046;4.498;2022-07-23T14:46:11;5.85;;;5.30;;
29538;SDS011;16482;51.046;4.498;2022-07-23T14:48:37;5.85;;;5.32;;
29538;SDS011;16482;51.046;4.498;2022-07-23T14:51:06;6.22;;;5.63;;
29538;SDS011;16482;51.046;4.498;2022-07-23T14:53:32;6.47;;;5.88;;
29538;SDS011;16482;51.046;4.498;2022-07-23T14:56:08;6.55;;;5.88;;
29538;SDS011;16482;51.046;4.498;2022-07-23T14:58:33;6.38;;;5.78;;
29538;SDS011;16482;51.046;4.498;2022-07-23T15:00:59;6.72;;;6.05;;
29538;SDS011;16482;51.046;4.498;2022-07-23T15:03:28;6.70;;;6.00;;
29538;SDS011;16482;51.046;4.498;2022-07-23T15:05:54;6.72;;;6.03;;
29538;SDS011;16482;51.046;4.498;2022-07-23T15:08:20;6.35;;;5.75;;
29538;SDS011;16482;51.046;4.498;2022-07-23T15:10:45;6.75;;;6.15;;
29538;SDS011;16482;51.046;4.498;2022-07-23T15:13:11;6.72;;;6.03;;
29538;SDS011;16482;51.046;4.498;2022-07-23T15:15:37;7.18;;;6.47;;
29538;SDS011;16482;51.046;4.498;2022-07-23T15:18:03;6.30;;;5.70;;
29538;SDS011;16482;51.046;4.498;2022-07-23T15:20:29;6.78;;;6.05;;
29538;SDS011;16482;51.046;4.498;2022-07-23T15:22:56;6.43;;;5.82;;
29538;SDS011;16482;51.046;4.498;2022-07-23T15:25:22;7.00;;;6.30;;
29538;SDS011;16482;51.046;4.498;2022-07-23T15:27:48;7.05;;;6.40;;
29538;SDS011;16482;51.046;4.498;2022-07-23T15:30:14;7.28;;;6.57;;
29538;SDS011;16482;51.046;4.498;2022-07-23T15:32:44;7.47;;;6.72;;
29538;SDS011;16482;51.046;4.498;2022-07-23T15:35:09;7.30;;;6.57;;
29538;SDS011;16482;51.046;4.498;2022-07-23T15:37:44;6.78;;;6.18;;
29538;SDS011;16482;51.046;4.498;2022-07-23T15:40:20;7.35;;;6.65;;